createdAt,value
2022-08-05T00:01:20.960Z,98415.16
2022-08-05T00:04:14.112Z,98400.91
2022-08-05T00:06:59.575Z,98286.72
2022-08-05T00:09:45.396Z,98387.97
2022-08-05T00:12:31.398Z,98401.06
2022-08-05T00:15:54.082Z,98408.78
2022-08-05T00:18:22.893Z,98397.88
2022-08-05T00:21:09.295Z,98402.78
2022-08-05T00:24:10.723Z,98405.53
2022-08-05T00:26:56.976Z,98403.50
2022-08-05T00:29:45.084Z,98279.44
2022-08-05T00:32:30.937Z,98398.28
2022-08-05T00:35:17.035Z,98399.72
2022-08-05T00:38:06.467Z,98399.00
2022-08-05T00:40:57.144Z,98332.94
2022-08-05T00:43:47.143Z,98407.69
2022-08-05T00:46:42.610Z,98291.06
2022-08-05T00:49:32.406Z,98357.69
2022-08-05T00:52:28.222Z,98377.53
2022-08-05T00:55:14.931Z,98398.97
2022-08-05T00:58:01.021Z,98338.72
2022-08-05T01:00:47.882Z,98272.72
2022-08-05T01:03:37.929Z,98393.28
2022-08-05T01:06:28.920Z,98394.09
2022-08-05T01:09:20.047Z,98383.91
2022-08-05T01:12:18.867Z,98335.13
2022-08-05T01:15:36.275Z,98396.28
2022-08-05T01:18:21.132Z,98370.69
2022-08-05T01:21:38.107Z,98367.84
2022-08-05T01:24:45.027Z,98227.91
2022-08-05T01:27:55.042Z,98263.13
2022-08-05T01:30:55.174Z,98340.91
2022-08-05T01:34:00.956Z,98382.38
2022-08-05T01:36:53.849Z,98417.31
2022-08-05T01:39:47.543Z,98388.78
2022-08-05T01:42:36.678Z,98379.72
2022-08-05T01:45:24.985Z,98094.53
2022-08-05T01:48:11.777Z,98225.41
2022-08-05T01:51:00.124Z,98242.50
2022-08-05T01:54:02.187Z,98384.97
2022-08-05T01:58:10.630Z,98371.34
2022-08-05T02:00:01.036Z,98383.13
2022-08-05T02:02:58.083Z,98252.38
2022-08-05T02:05:45.798Z,98356.22
2022-08-05T02:08:40.865Z,98389.94
2022-08-05T02:12:17.783Z,98375.91
2022-08-05T02:15:19.562Z,98225.72
2022-08-05T02:18:32.236Z,98388.88
2022-08-05T02:21:31.775Z,98378.94
2022-08-05T02:24:37.011Z,98335.41
2022-08-05T02:27:30.226Z,98373.66
2022-08-05T02:30:51.557Z,98376.88
2022-08-05T02:33:45.103Z,98375.25
2022-08-05T02:36:36.963Z,98365.38
2022-08-05T02:39:25.393Z,98195.53
2022-08-05T02:42:22.527Z,98316.19
2022-08-05T02:45:16.465Z,98372.34
2022-08-05T02:48:12.024Z,98375.25
2022-08-05T02:51:01.083Z,98372.34
2022-08-05T02:53:48.662Z,98198.03
2022-08-05T02:56:43.551Z,98380.47
2022-08-05T02:59:47.794Z,98344.31
2022-08-05T03:02:44.302Z,98371.94
2022-08-05T03:06:55.155Z,98374.84
2022-08-05T03:08:42.743Z,98376.09
2022-08-05T03:11:56.411Z,98354.81
2022-08-05T03:14:35.497Z,98375.88
2022-08-05T03:17:32.440Z,98372.03
2022-08-05T03:20:27.217Z,98371.22
2022-08-05T03:23:13.826Z,98362.03
2022-08-05T03:26:04.761Z,98383.41
2022-08-05T03:29:05.687Z,98313.44
2022-08-05T03:32:00.455Z,98403.38
2022-08-05T03:34:50.467Z,98236.22
2022-08-05T03:37:44.689Z,98394.44
2022-08-05T03:40:32.841Z,98334.09
2022-08-05T03:44:09.598Z,98209.66
2022-08-05T03:46:26.758Z,98375.50
2022-08-05T03:49:15.922Z,98408.97
2022-08-05T03:52:37.149Z,98231.56
2022-08-05T03:56:05.809Z,98370.53
2022-08-05T03:58:28.900Z,98384.66
2022-08-05T04:01:20.734Z,98326.75
2022-08-05T04:04:10.155Z,98245.56
2022-08-05T04:06:58.020Z,98369.41
2022-08-05T04:09:53.065Z,98356.13
2022-08-05T04:15:24.722Z,98208.84
2022-08-05T04:18:12.717Z,98128.97
2022-08-05T04:21:07.754Z,98239.22
2022-08-05T04:24:06.666Z,98335.91
2022-08-05T04:26:52.675Z,98360.69
2022-08-05T04:29:39.095Z,98366.03
2022-08-05T04:32:31.008Z,98219.09
2022-08-05T04:35:19.821Z,98361.53
2022-08-05T04:38:06.901Z,98326.50
2022-08-05T04:40:53.703Z,98368.97
2022-08-05T04:43:46.639Z,98355.56
2022-08-05T04:46:42.024Z,98352.75
2022-08-05T04:49:38.499Z,98364.84
2022-08-05T04:52:40.553Z,98357.84
2022-08-05T04:56:14.429Z,98362.44
2022-08-05T04:58:34.203Z,98300.19
2022-08-05T05:02:06.139Z,98348.47
2022-08-05T05:04:35.067Z,98353.75
2022-08-05T05:07:29.765Z,98353.09
2022-08-05T05:10:19.088Z,98309.38
2022-08-05T05:13:06.009Z,98351.38
2022-08-05T05:15:57.634Z,98362.91
2022-08-05T05:19:36.501Z,98358.69
2022-08-05T05:22:44.286Z,98284.25
2022-08-05T05:25:41.077Z,98351.41
2022-08-05T05:28:28.227Z,98361.19
2022-08-05T05:31:18.531Z,98359.34
2022-08-05T05:34:05.250Z,98363.03
2022-08-05T05:36:51.769Z,98353.78
2022-08-05T05:39:38.661Z,98362.97
2022-08-05T05:42:28.820Z,98321.75
2022-08-05T05:45:16.304Z,98352.38
2022-08-05T05:48:06.371Z,98354.38
2022-08-05T05:50:54.465Z,98358.34
2022-08-05T05:53:54.310Z,98257.66
2022-08-05T05:56:45.293Z,98332.81
2022-08-05T05:59:33.407Z,98356.66
2022-08-05T06:02:32.797Z,98355.44
2022-08-05T06:05:23.741Z,98357.34
2022-08-05T06:08:10.863Z,98361.91
2022-08-05T06:10:56.872Z,98242.59
2022-08-05T06:13:53.947Z,98361.69
2022-08-05T06:16:39.998Z,98353.84
2022-08-05T06:19:34.910Z,98346.94
2022-08-05T06:22:35.095Z,98308.44
2022-08-05T06:25:59.173Z,98353.38
2022-08-05T06:28:27.422Z,98266.59
2022-08-05T06:31:17.882Z,98350.31
2022-08-05T06:34:09.145Z,98359.81
2022-08-05T06:36:58.115Z,98357.03
2022-08-05T06:39:44.465Z,98342.78
2022-08-05T06:42:30.471Z,98283.91
2022-08-05T06:45:21.176Z,98337.34
2022-08-05T06:48:53.009Z,98308.53
2022-08-05T06:51:30.756Z,98323.41
2022-08-05T06:54:19.119Z,98353.66
2022-08-05T06:57:14.055Z,98337.09
2022-08-05T07:00:12.032Z,98351.00
2022-08-05T07:02:59.514Z,98308.22
2022-08-05T07:05:47.298Z,98351.19
2022-08-05T07:08:33.561Z,98186.13
2022-08-05T07:11:22.529Z,98339.91
2022-08-05T07:14:32.244Z,98319.88
2022-08-05T07:17:59.724Z,98330.72
2022-08-05T07:20:37.199Z,98340.06
2022-08-05T07:23:30.204Z,98339.50
2022-08-05T07:26:22.608Z,98339.59
2022-08-05T07:29:11.464Z,98344.63
2022-08-05T07:31:59.748Z,98348.94
2022-08-05T07:34:50.229Z,98344.72
2022-08-05T07:37:44.701Z,98343.34
2022-08-05T07:40:33.715Z,98350.56
2022-08-05T07:43:21.453Z,98309.19
2022-08-05T07:46:07.175Z,98342.28
2022-08-05T07:49:14.233Z,98336.69
2022-08-05T07:52:00.992Z,98334.59
2022-08-05T07:54:49.340Z,98337.44
2022-08-05T07:57:56.229Z,98329.66
2022-08-05T08:00:42.639Z,98328.22
2022-08-05T08:03:44.365Z,98331.13
2022-08-05T08:06:32.770Z,98313.09
2022-08-05T08:09:18.217Z,98329.66
2022-08-05T08:12:19.967Z,98329.75
2022-08-05T08:15:15.242Z,98296.81
2022-08-05T08:18:01.864Z,98320.56
2022-08-05T08:21:02.963Z,98311.25
2022-08-05T08:24:01.502Z,98296.97
2022-08-05T08:26:50.948Z,98324.28
2022-08-05T08:30:04.159Z,98323.63
2022-08-05T08:32:43.838Z,98325.06
2022-08-05T08:35:35.007Z,98320.00
2022-08-05T08:38:35.499Z,98292.63
2022-08-05T08:41:26.136Z,98327.16
2022-08-05T08:45:16.308Z,98272.75
2022-08-05T08:48:05.879Z,98322.88
2022-08-05T08:51:03.772Z,98304.22
2022-08-05T08:53:54.731Z,98317.19
2022-08-05T08:56:47.773Z,98279.13
2022-08-05T08:59:36.561Z,98276.31
2022-08-05T09:02:26.904Z,98314.28
2022-08-05T09:05:16.359Z,98307.19
2022-08-05T09:08:04.174Z,98307.22
2022-08-05T09:10:51.870Z,98299.41
2022-08-05T09:14:00.864Z,98260.06
2022-08-05T09:16:48.972Z,98305.88
2022-08-05T09:19:36.596Z,98293.06
2022-08-05T09:23:05.525Z,98290.25
2022-08-05T09:26:21.147Z,98290.31
2022-08-05T09:29:09.175Z,98293.22
2022-08-05T09:32:41.756Z,98295.41
2022-08-05T09:35:26.612Z,98286.16
2022-08-05T09:38:18.364Z,98294.72
2022-08-05T09:41:16.092Z,98283.28
2022-08-05T09:44:02.117Z,98181.66
2022-08-05T09:46:51.644Z,98148.72
2022-08-05T09:50:02.316Z,98273.25
2022-08-05T09:52:57.680Z,98264.63
2022-08-05T09:55:56.421Z,98152.97
2022-08-05T09:59:06.182Z,98212.25
2022-08-05T10:01:57.992Z,98247.34
2022-08-05T10:04:45.486Z,98202.94
2022-08-05T10:08:35.255Z,98167.19
2022-08-05T10:11:15.042Z,98276.00
2022-08-05T10:14:22.649Z,98270.31
2022-08-05T10:17:37.875Z,98236.66
2022-08-05T10:20:21.901Z,98239.59
2022-08-05T10:23:34.062Z,98263.25
2022-08-05T10:26:16.476Z,98256.16
2022-08-05T10:29:02.885Z,98261.88
2022-08-05T10:32:54.349Z,98250.44
2022-08-05T10:35:01.079Z,98226.81
2022-08-05T10:37:48.041Z,98251.88
2022-08-05T10:40:43.479Z,98257.59
2022-08-05T10:43:46.382Z,98250.47
2022-08-05T10:46:46.046Z,98247.59
2022-08-05T10:50:32.496Z,98249.03
2022-08-05T10:53:06.929Z,98239.00
2022-08-05T10:56:21.058Z,98243.31
2022-08-05T11:00:01.299Z,98229.03
2022-08-05T11:02:38.158Z,98244.06
2022-08-05T11:05:29.001Z,98243.34
2022-08-05T11:08:33.932Z,98236.25
2022-08-05T11:11:42.066Z,98244.09
2022-08-05T11:17:59.261Z,98148.25
2022-08-05T11:20:51.419Z,98160.41
2022-08-05T11:24:05.689Z,98176.16
2022-08-05T11:27:51.491Z,98237.66
2022-08-05T11:30:58.326Z,98111.09
2022-08-05T11:33:47.910Z,98250.50
2022-08-05T11:36:52.979Z,98195.47
2022-08-05T11:40:00.700Z,98208.31
2022-08-05T11:42:50.396Z,98185.47
2022-08-05T11:46:27.133Z,98209.78
2022-08-05T11:48:55.110Z,98082.56
2022-08-05T11:51:49.762Z,98217.66
2022-08-05T11:54:38.361Z,98204.81
2022-08-05T11:58:08.610Z,98210.53
2022-08-05T12:00:38.989Z,98203.34
2022-08-05T12:03:28.966Z,98231.25
2022-08-05T12:06:21.191Z,98236.22
2022-08-05T12:09:07.748Z,98230.47
2022-08-05T12:12:08.666Z,98236.16
2022-08-05T12:14:58.316Z,98226.91
2022-08-05T12:18:10.077Z,98224.78
2022-08-05T12:20:53.365Z,98224.75
2022-08-05T12:23:43.130Z,98217.63
2022-08-05T12:26:48.118Z,98221.91
2022-08-05T12:29:38.029Z,98221.91
2022-08-05T12:32:25.950Z,98227.63
2022-08-05T12:35:16.928Z,98225.47
2022-08-05T12:38:10.988Z,98220.44
2022-08-05T12:40:57.582Z,98187.53
2022-08-05T12:43:57.643Z,98220.44
2022-08-05T12:46:53.384Z,98187.56
2022-08-05T12:50:02.319Z,98213.34
2022-08-05T12:52:59.958Z,98203.34
2022-08-05T12:55:47.991Z,98199.06
2022-08-05T12:58:49.717Z,98093.28
2022-08-05T13:02:02.673Z,98213.34
2022-08-05T13:04:52.555Z,98079.03
2022-08-05T13:07:59.517Z,98161.91
2022-08-05T13:10:50.510Z,98193.38
2022-08-05T13:14:04.539Z,98190.50
2022-08-05T13:16:56.562Z,98184.81
2022-08-05T13:19:58.380Z,98190.50
2022-08-05T13:22:53.034Z,98180.50
2022-08-05T13:25:52.207Z,98193.34
2022-08-05T13:28:46.423Z,98137.63
2022-08-05T13:32:04.171Z,98161.88
2022-08-05T13:34:40.910Z,98189.03
2022-08-05T13:37:34.460Z,98088.22
2022-08-05T13:40:35.577Z,98187.53
2022-08-05T13:43:43.310Z,98186.13
2022-08-05T13:46:43.873Z,98178.97
2022-08-05T13:49:36.153Z,98060.31
2022-08-05T13:52:29.944Z,98189.03
2022-08-05T13:55:41.774Z,98179.06
2022-08-05T13:58:30.531Z,98170.47
2022-08-05T14:01:17.477Z,98181.16
2022-08-05T14:04:22.219Z,98163.31
2022-08-05T14:07:57.062Z,98164.72
2022-08-05T14:10:28.929Z,98179.00
2022-08-05T14:13:17.031Z,98118.94
2022-08-05T14:16:11.197Z,98037.47
2022-08-05T14:18:57.205Z,98131.81
2022-08-05T14:22:09.122Z,98146.09
2022-08-05T14:24:57.458Z,98151.84
2022-08-05T14:27:47.349Z,98156.13
2022-08-05T14:30:33.746Z,98158.31
2022-08-05T14:33:22.879Z,98076.13
2022-08-05T14:36:09.404Z,98133.31
2022-08-05T14:38:57.040Z,98143.34
2022-08-05T14:42:08.739Z,98140.47
2022-08-05T14:44:50.768Z,98146.19
2022-08-05T14:48:02.890Z,98138.34
2022-08-05T14:50:43.441Z,98115.47
2022-08-05T14:53:30.651Z,98136.19
2022-08-05T14:56:22.772Z,98104.00
2022-08-05T14:59:09.111Z,98131.91
2022-08-05T15:01:55.454Z,98061.78
2022-08-05T15:04:43.887Z,98131.13
2022-08-05T15:08:12.251Z,98127.53
2022-08-05T15:10:37.686Z,98114.69
2022-08-05T15:13:24.329Z,98118.97
2022-08-05T15:16:30.341Z,98116.13
2022-08-05T15:19:23.722Z,98107.56
2022-08-05T15:22:10.400Z,98118.97
2022-08-05T15:24:59.193Z,97986.06
2022-08-05T15:27:52.116Z,98113.28
2022-08-05T15:30:38.371Z,98097.59
2022-08-05T15:34:04.588Z,98101.88
2022-08-05T15:36:32.387Z,98101.88
2022-08-05T15:41:00.503Z,98128.28
2022-08-05T15:42:54.786Z,98089.03
2022-08-05T15:45:38.131Z,98090.44
2022-08-05T15:48:25.038Z,98100.44
2022-08-05T15:51:11.324Z,98093.31
2022-08-05T15:53:57.608Z,98101.88
2022-08-05T15:56:45.414Z,98088.31
2022-08-05T15:59:32.128Z,97966.84
2022-08-05T16:02:28.689Z,98119.69
2022-08-05T16:05:15.023Z,98123.28
2022-08-05T16:08:01.335Z,98123.28
2022-08-05T16:10:46.871Z,98123.28
2022-08-05T16:13:34.799Z,98103.28
2022-08-05T16:16:25.401Z,98118.97
2022-08-05T16:19:12.085Z,98110.38
2022-08-05T16:22:11.236Z,97988.91
2022-08-05T16:25:00.815Z,98062.50
2022-08-05T16:28:04.852Z,97996.03
2022-08-05T16:30:53.072Z,98111.09
2022-08-05T16:33:41.525Z,98020.28
2022-08-05T16:36:27.838Z,98118.22
2022-08-05T16:39:13.891Z,98111.78
2022-08-05T16:42:13.972Z,98108.94
2022-08-05T16:45:05.893Z,98030.31
2022-08-05T16:48:10.407Z,98008.88
2022-08-05T16:50:56.756Z,98106.09
2022-08-05T16:54:03.263Z,98108.94
2022-08-05T16:56:52.223Z,97961.63
2022-08-05T17:00:01.434Z,98109.63
2022-08-05T17:02:46.012Z,98101.78
2022-08-05T17:05:32.499Z,97997.28
2022-08-05T17:08:36.251Z,98110.28
2022-08-05T17:11:30.893Z,98110.94
2022-08-05T17:14:37.386Z,98103.09
2022-08-05T17:17:24.305Z,98010.72
2022-08-05T17:20:28.793Z,98119.38
2022-08-05T17:24:03.450Z,98121.47
2022-08-05T17:26:21.126Z,98004.00
2022-08-05T17:29:10.089Z,98101.28
2022-08-05T17:31:58.167Z,98136.94
2022-08-05T17:34:48.077Z,98040.97
2022-08-05T17:37:41.523Z,98049.44
2022-08-05T17:40:31.632Z,98129.47
2022-08-05T17:43:16.950Z,98145.13
2022-08-05T17:46:03.451Z,98110.78
2022-08-05T17:48:50.373Z,98133.56
2022-08-05T17:51:40.444Z,98112.75
2022-08-05T17:54:26.517Z,98124.75
2022-08-05T17:57:12.516Z,98114.69
2022-08-05T18:00:04.747Z,98127.66
2022-08-05T18:02:54.541Z,97974.19
2022-08-05T18:05:40.278Z,98006.31
2022-08-05T18:08:26.260Z,98134.50
2022-08-05T18:11:24.817Z,98134.31
2022-08-05T18:14:20.503Z,98134.25
2022-08-05T18:17:08.336Z,98045.88
2022-08-05T18:20:15.663Z,98146.13
2022-08-05T18:23:09.534Z,98146.72
2022-08-05T18:25:59.520Z,98037.69
2022-08-05T18:28:46.431Z,98110.78
2022-08-05T18:31:33.027Z,98061.97
2022-08-05T18:34:21.922Z,98147.97
2022-08-05T18:37:12.507Z,98150.72
2022-08-05T18:41:51.185Z,98142.66
2022-08-05T18:43:05.227Z,98097.22
2022-08-05T18:45:54.729Z,98158.16
2022-08-05T18:48:42.121Z,98165.13
2022-08-05T18:52:06.400Z,98157.25
2022-08-05T18:54:51.943Z,98020.72
2022-08-05T18:57:43.642Z,98165.44
2022-08-05T19:00:39.570Z,98188.53
2022-08-05T19:03:53.309Z,98172.72
2022-08-05T19:06:37.429Z,98193.09
2022-08-05T19:09:39.379Z,98142.25
2022-08-05T19:12:25.901Z,98101.25
2022-08-05T19:15:57.788Z,98168.81
2022-08-05T19:18:20.752Z,98188.66
2022-08-05T19:21:08.351Z,98158.63
2022-08-05T19:24:06.997Z,98148.16
2022-08-05T19:26:55.613Z,98029.34
2022-08-05T19:29:42.841Z,98168.88
2022-08-05T19:32:29.383Z,98071.47
2022-08-05T19:35:16.360Z,98179.75
2022-08-05T19:38:06.247Z,98138.53
2022-08-05T19:40:58.463Z,98176.78
2022-08-05T19:44:06.192Z,98032.84
2022-08-05T19:46:51.707Z,98175.47
2022-08-05T19:49:38.664Z,98165.56
2022-08-05T19:52:40.552Z,98125.16
2022-08-05T19:56:13.767Z,98158.31
2022-08-05T19:58:33.055Z,98181.13
2022-08-05T20:01:41.123Z,98165.47
2022-08-05T20:04:30.335Z,98161.59
2022-08-05T20:07:46.886Z,98168.03
2022-08-05T20:10:24.478Z,98165.13
2022-08-05T20:13:12.289Z,98152.16
2022-08-05T20:16:01.899Z,98025.47
2022-08-05T20:18:55.348Z,98158.84
2022-08-05T20:21:43.429Z,98132.59
2022-08-05T20:24:32.501Z,98026.50
2022-08-05T20:27:18.402Z,98164.59
2022-08-05T20:30:09.628Z,98167.47
2022-08-05T20:32:55.844Z,98145.25
2022-08-05T20:35:45.269Z,98161.81
2022-08-05T20:38:35.623Z,98166.03
2022-08-05T20:41:24.270Z,98167.25
2022-08-05T20:44:19.387Z,98168.41
2022-08-05T20:47:17.354Z,98148.88
2022-08-05T20:50:07.462Z,98161.00
2022-08-05T20:52:54.078Z,98160.59
2022-08-05T20:55:56.291Z,98026.56
2022-08-05T20:58:45.552Z,98088.31
2022-08-05T21:01:37.203Z,98174.09
2022-08-05T21:04:24.310Z,98134.63
2022-08-05T21:07:13.962Z,98044.47
2022-08-05T21:09:59.288Z,98158.06
2022-08-05T21:13:08.756Z,98163.84
2022-08-05T21:15:51.511Z,98011.22
2022-08-05T21:18:37.704Z,98137.31
2022-08-05T21:21:24.452Z,98151.09
2022-08-05T21:24:12.612Z,98153.88
2022-08-05T21:26:59.015Z,98143.78
2022-08-05T21:29:48.472Z,98153.78
2022-08-05T21:32:36.652Z,98071.66
2022-08-05T21:35:30.405Z,98143.72
2022-08-05T21:38:29.986Z,98104.28
2022-08-05T21:41:15.778Z,98105.63
2022-08-05T21:44:06.467Z,98072.47
2022-08-05T21:46:52.148Z,98018.50
2022-08-05T21:49:58.908Z,98156.91
2022-08-05T21:52:45.913Z,98163.06
2022-08-05T21:56:04.270Z,98164.22
2022-08-05T21:58:56.929Z,98125.69
2022-08-05T22:01:44.865Z,98154.53
2022-08-05T22:04:32.446Z,98159.31
2022-08-05T22:07:18.323Z,98154.22
2022-08-05T22:10:26.731Z,98150.56
2022-08-05T22:14:34.118Z,98146.84
2022-08-05T22:16:40.484Z,98133.25
2022-08-05T22:20:01.157Z,98091.03
2022-08-05T22:22:31.246Z,98150.91
2022-08-05T22:26:10.246Z,98150.19
2022-08-05T22:28:41.838Z,98026.94
2022-08-05T22:31:30.194Z,98158.00
2022-08-05T22:34:20.204Z,98130.44
2022-08-05T22:37:14.076Z,98034.66
2022-08-05T22:39:59.824Z,98106.72
2022-08-05T22:42:53.256Z,98107.44
2022-08-05T22:45:43.841Z,98142.69
2022-08-05T22:48:30.696Z,97992.66
2022-08-05T22:51:22.683Z,97984.16
2022-08-05T22:54:09.115Z,98145.59
2022-08-05T22:56:54.528Z,97984.09
2022-08-05T22:59:46.086Z,98001.19
2022-08-05T23:02:39.874Z,98140.56
2022-08-05T23:05:35.944Z,98126.78
2022-08-05T23:08:22.635Z,98019.16
2022-08-05T23:11:08.679Z,98118.75
2022-08-05T23:13:54.862Z,98057.81
2022-08-05T23:16:59.282Z,98087.56
2022-08-05T23:19:50.858Z,98106.03
2022-08-05T23:22:42.106Z,97995.38
2022-08-05T23:25:52.671Z,98023.56
2022-08-05T23:28:33.373Z,98104.59
2022-08-05T23:31:18.656Z,98086.53
2022-08-05T23:34:06.768Z,97992.16
2022-08-05T23:36:53.028Z,97969.28
2022-08-05T23:39:53.611Z,98122.34
2022-08-05T23:42:39.577Z,98029.72
2022-08-05T23:45:25.456Z,98098.16
2022-08-05T23:48:11.691Z,98049.56
2022-08-05T23:50:57.113Z,98048.63
2022-08-05T23:53:46.505Z,98109.13
2022-08-05T23:56:32.207Z,98118.00
2022-08-05T23:59:17.693Z,98001.69
